sensor_id;sensor_type;location;lat;lon;timestamp;pressure;altitude;pressure_sealevel;temperature;humidity
18201;BME280;9226;47.858;9.594;2024-02-15T00:00:05;95700.75;;;10.84;53.21
18201;BME280;9226;47.858;9.594;2024-02-15T00:02:31;95704.59;;;10.80;53.39
18201;BME280;9226;47.858;9.594;2024-02-15T00:04:57;95698.09;;;10.73;53.40
18201;BME280;9226;47.858;9.594;2024-02-15T00:07:22;95687.72;;;10.58;53.11
18201;BME280;9226;47.858;9.594;2024-02-15T00:09:48;95697.69;;;10.55;53.06
18201;BME280;9226;47.858;9.594;2024-02-15T00:12:14;95702.63;;;10.48;53.35
18201;BME280;9226;47.858;9.594;2024-02-15T00:14:39;95691.31;;;10.46;53.28
18201;BME280;9226;47.858;9.594;2024-02-15T00:17:05;95698.78;;;10.41;53.37
18201;BME280;9226;47.858;9.594;2024-02-15T00:19:30;95695.97;;;10.31;53.87
18201;BME280;9226;47.858;9.594;2024-02-15T00:21:56;95703.38;;;10.26;53.93
18201;BME280;9226;47.858;9.594;2024-02-15T00:24:22;95704.59;;;10.22;53.95
18201;BME280;9226;47.858;9.594;2024-02-15T00:26:47;95701.44;;;10.17;53.76
18201;BME280;9226;47.858;9.594;2024-02-15T00:29:13;95704.56;;;10.10;53.72
18201;BME280;9226;47.858;9.594;2024-02-15T00:31:38;95706.81;;;10.04;53.87
18201;BME280;9226;47.858;9.594;2024-02-15T00:34:05;95707.50;;;9.94;54.04
18201;BME280;9226;47.858;9.594;2024-02-15T00:36:31;95710.75;;;9.87;54.40
18201;BME280;9226;47.858;9.594;2024-02-15T00:38:57;95707.91;;;9.77;54.46
18201;BME280;9226;47.858;9.594;2024-02-15T00:41:22;95719.59;;;9.74;54.37
18201;BME280;9226;47.858;9.594;2024-02-15T00:43:48;95718.00;;;9.72;54.25
18201;BME280;9226;47.858;9.594;2024-02-15T00:46:15;95716.56;;;9.68;54.36
18201;BME280;9226;47.858;9.594;2024-02-15T00:48:41;95711.94;;;9.58;54.56
18201;BME280;9226;47.858;9.594;2024-02-15T00:51:06;95715.06;;;9.64;54.38
18201;BME280;9226;47.858;9.594;2024-02-15T00:53:31;95717.72;;;9.64;54.22
18201;BME280;9226;47.858;9.594;2024-02-15T00:55:57;95713.81;;;9.56;54.57
18201;BME280;9226;47.858;9.594;2024-02-15T00:58:22;95714.47;;;9.60;54.36
18201;BME280;9226;47.858;9.594;2024-02-15T01:00:47;95712.38;;;9.52;54.74
18201;BME280;9226;47.858;9.594;2024-02-15T01:03:14;95717.91;;;9.49;54.68
18201;BME280;9226;47.858;9.594;2024-02-15T01:05:40;95703.28;;;9.44;54.81
18201;BME280;9226;47.858;9.594;2024-02-15T01:08:05;95708.69;;;9.42;54.81
18201;BME280;9226;47.858;9.594;2024-02-15T01:10:31;95704.66;;;9.49;54.49
18201;BME280;9226;47.858;9.594;2024-02-15T01:12:56;95706.00;;;9.55;54.55
18201;BME280;9226;47.858;9.594;2024-02-15T01:15:21;95706.25;;;9.39;56.21
18201;BME280;9226;47.858;9.594;2024-02-15T01:17:46;95705.34;;;9.27;57.12
18201;BME280;9226;47.858;9.594;2024-02-15T01:20:12;95708.97;;;9.13;57.47
18201;BME280;9226;47.858;9.594;2024-02-15T01:22:37;95701.66;;;9.17;56.51
18201;BME280;9226;47.858;9.594;2024-02-15T01:25:03;95704.84;;;9.22;56.08
18201;BME280;9226;47.858;9.594;2024-02-15T01:27:28;95708.41;;;9.34;55.56
18201;BME280;9226;47.858;9.594;2024-02-15T01:29:56;95699.50;;;9.35;55.44
18201;BME280;9226;47.858;9.594;2024-02-15T01:32:22;95700.47;;;9.34;55.41
18201;BME280;9226;47.858;9.594;2024-02-15T01:34:47;95697.81;;;9.34;55.28
18201;BME280;9226;47.858;9.594;2024-02-15T01:37:13;95692.41;;;9.35;55.32
18201;BME280;9226;47.858;9.594;2024-02-15T01:39:39;95697.69;;;9.35;55.12
18201;BME280;9226;47.858;9.594;2024-02-15T01:42:05;95698.66;;;9.34;55.13
18201;BME280;9226;47.858;9.594;2024-02-15T01:44:31;95699.50;;;9.35;55.28
18201;BME280;9226;47.858;9.594;2024-02-15T01:46:57;95699.72;;;9.32;55.08
18201;BME280;9226;47.858;9.594;2024-02-15T01:49:24;95693.38;;;9.21;55.13
18201;BME280;9226;47.858;9.594;2024-02-15T01:51:53;95699.44;;;9.23;55.11
18201;BME280;9226;47.858;9.594;2024-02-15T01:54:21;95697.63;;;9.24;54.94
18201;BME280;9226;47.858;9.594;2024-02-15T01:56:47;95695.94;;;9.23;55.05
18201;BME280;9226;47.858;9.594;2024-02-15T01:59:15;95695.31;;;9.19;54.92
18201;BME280;9226;47.858;9.594;2024-02-15T02:01:41;95694.81;;;9.14;55.21
18201;BME280;9226;47.858;9.594;2024-02-15T02:04:07;95701.03;;;9.13;55.10
18201;BME280;9226;47.858;9.594;2024-02-15T02:06:33;95692.81;;;9.05;55.38
18201;BME280;9226;47.858;9.594;2024-02-15T02:08:58;95693.97;;;9.01;55.38
18201;BME280;9226;47.858;9.594;2024-02-15T02:11:24;95690.09;;;8.94;55.64
18201;BME280;9226;47.858;9.594;2024-02-15T02:13:49;95691.97;;;8.92;55.73
18201;BME280;9226;47.858;9.594;2024-02-15T02:16:29;95690.72;;;8.84;55.85
18201;BME280;9226;47.858;9.594;2024-02-15T02:18:57;95685.44;;;8.84;55.53
18201;BME280;9226;47.858;9.594;2024-02-15T02:21:26;95683.84;;;8.82;55.59
18201;BME280;9226;47.858;9.594;2024-02-15T02:23:53;95685.66;;;8.81;55.59
18201;BME280;9226;47.858;9.594;2024-02-15T02:26:21;95682.38;;;8.78;55.53
18201;BME280;9226;47.858;9.594;2024-02-15T02:28:47;95676.44;;;8.74;55.62
18201;BME280;9226;47.858;9.594;2024-02-15T02:31:13;95674.78;;;8.73;55.59
18201;BME280;9226;47.858;9.594;2024-02-15T02:33:39;95677.41;;;8.73;55.46
18201;BME280;9226;47.858;9.594;2024-02-15T02:36:06;95671.25;;;8.73;55.51
18201;BME280;9226;47.858;9.594;2024-02-15T02:38:37;95672.34;;;8.70;55.54
18201;BME280;9226;47.858;9.594;2024-02-15T02:41:05;95670.66;;;8.56;56.00
18201;BME280;9226;47.858;9.594;2024-02-15T02:43:31;95672.31;;;8.44;56.69
18201;BME280;9226;47.858;9.594;2024-02-15T02:45:57;95687.44;;;8.42;56.33
18201;BME280;9226;47.858;9.594;2024-02-15T02:48:22;95679.72;;;8.39;56.09
18201;BME280;9226;47.858;9.594;2024-02-15T02:50:50;95675.41;;;8.38;55.97
18201;BME280;9226;47.858;9.594;2024-02-15T02:53:15;95678.25;;;8.35;56.04
18201;BME280;9226;47.858;9.594;2024-02-15T02:55:41;95669.56;;;8.33;56.09
18201;BME280;9226;47.858;9.594;2024-02-15T02:58:07;95669.75;;;8.30;56.18
18201;BME280;9226;47.858;9.594;2024-02-15T03:00:33;95671.88;;;8.25;56.49
18201;BME280;9226;47.858;9.594;2024-02-15T03:02:59;95663.53;;;8.18;56.69
18201;BME280;9226;47.858;9.594;2024-02-15T03:05:25;95667.22;;;8.15;56.88
18201;BME280;9226;47.858;9.594;2024-02-15T03:07:50;95662.25;;;8.11;57.24
18201;BME280;9226;47.858;9.594;2024-02-15T03:10:17;95664.25;;;8.07;57.17
18201;BME280;9226;47.858;9.594;2024-02-15T03:12:44;95658.44;;;8.02;57.37
18201;BME280;9226;47.858;9.594;2024-02-15T03:15:12;95653.38;;;7.99;57.67
18201;BME280;9226;47.858;9.594;2024-02-15T03:17:41;95656.41;;;7.93;58.51
18201;BME280;9226;47.858;9.594;2024-02-15T03:20:08;95659.06;;;7.93;58.37
18201;BME280;9226;47.858;9.594;2024-02-15T03:22:57;95658.75;;;7.85;59.32
18201;BME280;9226;47.858;9.594;2024-02-15T03:25:23;95657.03;;;7.84;58.52
18201;BME280;9226;47.858;9.594;2024-02-15T03:27:50;95652.88;;;7.79;58.71
18201;BME280;9226;47.858;9.594;2024-02-15T03:30:17;95658.50;;;7.75;59.14
18201;BME280;9226;47.858;9.594;2024-02-15T03:32:42;95660.38;;;7.73;59.12
18201;BME280;9226;47.858;9.594;2024-02-15T03:35:08;95659.75;;;7.69;59.50
18201;BME280;9226;47.858;9.594;2024-02-15T03:37:33;95661.66;;;7.67;59.60
18201;BME280;9226;47.858;9.594;2024-02-15T03:40:02;95659.94;;;7.66;59.59
18201;BME280;9226;47.858;9.594;2024-02-15T03:42:29;95661.75;;;7.66;59.55
18201;BME280;9226;47.858;9.594;2024-02-15T03:44:55;95661.84;;;7.64;59.77
18201;BME280;9226;47.858;9.594;2024-02-15T03:47:20;95662.91;;;7.61;59.81
18201;BME280;9226;47.858;9.594;2024-02-15T03:49:46;95660.75;;;7.54;59.75
18201;BME280;9226;47.858;9.594;2024-02-15T03:52:11;95665.16;;;7.40;60.54
18201;BME280;9226;47.858;9.594;2024-02-15T03:54:37;95666.38;;;7.35;60.32
18201;BME280;9226;47.858;9.594;2024-02-15T03:57:02;95665.75;;;7.31;59.95
18201;BME280;9226;47.858;9.594;2024-02-15T03:59:27;95668.03;;;7.23;60.06
18201;BME280;9226;47.858;9.594;2024-02-15T04:01:53;95663.16;;;7.17;60.11
18201;BME280;9226;47.858;9.594;2024-02-15T04:04:19;95664.28;;;7.13;60.27
18201;BME280;9226;47.858;9.594;2024-02-15T04:06:51;95662.91;;;7.07;59.91
18201;BME280;9226;47.858;9.594;2024-02-15T04:09:17;95658.66;;;7.04;59.77
18201;BME280;9226;47.858;9.594;2024-02-15T04:11:43;95666.78;;;7.01;59.79
18201;BME280;9226;47.858;9.594;2024-02-15T04:14:09;95665.94;;;7.01;59.75
18201;BME280;9226;47.858;9.594;2024-02-15T04:16:34;95659.03;;;6.98;59.93
18201;BME280;9226;47.858;9.594;2024-02-15T04:19:01;95667.06;;;6.97;59.76
18201;BME280;9226;47.858;9.594;2024-02-15T04:21:26;95655.75;;;6.95;60.23
18201;BME280;9226;47.858;9.594;2024-02-15T04:23:52;95662.63;;;6.97;60.04
18201;BME280;9226;47.858;9.594;2024-02-15T04:26:19;95658.94;;;7.00;59.95
18201;BME280;9226;47.858;9.594;2024-02-15T04:28:45;95662.44;;;7.00;59.98
18201;BME280;9226;47.858;9.594;2024-02-15T04:31:13;95664.31;;;6.98;59.78
18201;BME280;9226;47.858;9.594;2024-02-15T04:33:38;95661.97;;;6.94;59.98
18201;BME280;9226;47.858;9.594;2024-02-15T04:36:05;95665.56;;;6.93;60.01
18201;BME280;9226;47.858;9.594;2024-02-15T04:38:35;95667.53;;;6.89;60.12
18201;BME280;9226;47.858;9.594;2024-02-15T04:41:03;95664.16;;;6.87;60.14
18201;BME280;9226;47.858;9.594;2024-02-15T04:43:34;95663.22;;;6.88;60.14
18201;BME280;9226;47.858;9.594;2024-02-15T04:46:05;95661.34;;;6.90;60.14
18201;BME280;9226;47.858;9.594;2024-02-15T04:48:32;95660.41;;;6.91;60.19
18201;BME280;9226;47.858;9.594;2024-02-15T04:50:59;95668.22;;;6.93;60.14
18201;BME280;9226;47.858;9.594;2024-02-15T04:53:25;95665.66;;;6.91;60.13
18201;BME280;9226;47.858;9.594;2024-02-15T04:55:50;95659.63;;;6.89;60.11
18201;BME280;9226;47.858;9.594;2024-02-15T04:58:15;95655.50;;;6.85;60.18
18201;BME280;9226;47.858;9.594;2024-02-15T05:00:41;95654.72;;;6.83;60.71
18201;BME280;9226;47.858;9.594;2024-02-15T05:03:07;95659.81;;;6.86;60.44
18201;BME280;9226;47.858;9.594;2024-02-15T05:05:33;95657.94;;;6.88;60.23
18201;BME280;9226;47.858;9.594;2024-02-15T05:07:58;95658.69;;;6.90;60.24
18201;BME280;9226;47.858;9.594;2024-02-15T05:10:26;95657.00;;;6.89;60.29
18201;BME280;9226;47.858;9.594;2024-02-15T05:12:52;95663.03;;;6.91;60.26
18201;BME280;9226;47.858;9.594;2024-02-15T05:15:18;95657.75;;;6.91;60.23
18201;BME280;9226;47.858;9.594;2024-02-15T05:17:48;95657.94;;;6.88;60.29
18201;BME280;9226;47.858;9.594;2024-02-15T05:20:13;95656.44;;;6.84;60.38
18201;BME280;9226;47.858;9.594;2024-02-15T05:22:40;95652.28;;;6.80;60.66
18201;BME280;9226;47.858;9.594;2024-02-15T05:25:08;95643.09;;;6.73;60.90
18201;BME280;9226;47.858;9.594;2024-02-15T05:27:34;95645.91;;;6.69;60.90
18201;BME280;9226;47.858;9.594;2024-02-15T05:30:02;95645.38;;;6.64;60.97
18201;BME280;9226;47.858;9.594;2024-02-15T05:32:32;95645.75;;;6.58;61.36
18201;BME280;9226;47.858;9.594;2024-02-15T05:34:57;95644.03;;;6.57;61.03
18201;BME280;9226;47.858;9.594;2024-02-15T05:37:22;95645.84;;;6.57;61.09
18201;BME280;9226;47.858;9.594;2024-02-15T05:39:48;95644.22;;;6.54;62.39
18201;BME280;9226;47.858;9.594;2024-02-15T05:42:19;95648.38;;;6.44;63.61
18201;BME280;9226;47.858;9.594;2024-02-15T05:44:44;95645.16;;;6.53;62.39
18201;BME280;9226;47.858;9.594;2024-02-15T05:47:11;95652.88;;;6.56;62.60
18201;BME280;9226;47.858;9.594;2024-02-15T05:49:36;95658.06;;;6.58;63.20
18201;BME280;9226;47.858;9.594;2024-02-15T05:52:02;95645.38;;;6.64;62.62
18201;BME280;9226;47.858;9.594;2024-02-15T05:54:27;95640.84;;;6.66;62.38
18201;BME280;9226;47.858;9.594;2024-02-15T05:56:53;95641.56;;;6.68;61.87
18201;BME280;9226;47.858;9.594;2024-02-15T05:59:20;95643.28;;;6.69;61.81
18201;BME280;9226;47.858;9.594;2024-02-15T06:01:46;95647.03;;;6.65;61.69
18201;BME280;9226;47.858;9.594;2024-02-15T06:04:15;95642.25;;;6.58;61.83
18201;BME280;9226;47.858;9.594;2024-02-15T06:06:42;95629.25;;;6.55;61.53
18201;BME280;9226;47.858;9.594;2024-02-15T06:09:08;95634.75;;;6.51;61.49
18201;BME280;9226;47.858;9.594;2024-02-15T06:11:33;95634.94;;;6.48;61.57
18201;BME280;9226;47.858;9.594;2024-02-15T06:13:58;95637.66;;;6.47;61.47
18201;BME280;9226;47.858;9.594;2024-02-15T06:16:24;95639.31;;;6.48;61.58
18201;BME280;9226;47.858;9.594;2024-02-15T06:18:49;95649.69;;;6.51;61.47
18201;BME280;9226;47.858;9.594;2024-02-15T06:21:15;95644.22;;;6.54;61.48
18201;BME280;9226;47.858;9.594;2024-02-15T06:23:40;95647.59;;;6.56;61.42
18201;BME280;9226;47.858;9.594;2024-02-15T06:26:05;95638.75;;;6.57;61.43
18201;BME280;9226;47.858;9.594;2024-02-15T06:28:31;95645.75;;;6.58;61.43
18201;BME280;9226;47.858;9.594;2024-02-15T06:31:15;95644.78;;;6.59;61.63
18201;BME280;9226;47.858;9.594;2024-02-15T06:33:59;95652.03;;;6.56;61.35
18201;BME280;9226;47.858;9.594;2024-02-15T06:36:50;95646.13;;;6.52;61.64
18201;BME280;9226;47.858;9.594;2024-02-15T06:39:34;95653.94;;;6.54;61.58
18201;BME280;9226;47.858;9.594;2024-02-15T06:42:13;95657.41;;;6.54;61.91
18201;BME280;9226;47.858;9.594;2024-02-15T06:44:48;95652.88;;;6.56;62.09
18201;BME280;9226;47.858;9.594;2024-02-15T06:47:14;95659.66;;;6.60;62.33
18201;BME280;9226;47.858;9.594;2024-02-15T06:49:42;95659.09;;;6.69;62.24
18201;BME280;9226;47.858;9.594;2024-02-15T06:52:09;95646.81;;;6.83;62.42
18201;BME280;9226;47.858;9.594;2024-02-15T06:54:38;95646.59;;;7.00;62.46
18201;BME280;9226;47.858;9.594;2024-02-15T06:57:04;95649.38;;;7.26;62.12
18201;BME280;9226;47.858;9.594;2024-02-15T06:59:30;95649.56;;;7.50;62.10
18201;BME280;9226;47.858;9.594;2024-02-15T07:01:58;95660.28;;;7.74;61.53
18201;BME280;9226;47.858;9.594;2024-02-15T07:04:23;95651.75;;;7.84;61.32
18201;BME280;9226;47.858;9.594;2024-02-15T07:06:51;95650.53;;;8.02;60.86
18201;BME280;9226;47.858;9.594;2024-02-15T07:09:17;95646.06;;;8.15;60.88
18201;BME280;9226;47.858;9.594;2024-02-15T07:11:45;95647.34;;;8.36;60.52
18201;BME280;9226;47.858;9.594;2024-02-15T07:14:13;95647.91;;;8.54;59.96
18201;BME280;9226;47.858;9.594;2024-02-15T07:16:44;95645.69;;;8.47;59.87
18201;BME280;9226;47.858;9.594;2024-02-15T07:19:09;95641.44;;;8.71;60.35
18201;BME280;9226;47.858;9.594;2024-02-15T07:21:34;95635.09;;;9.10;60.92
18201;BME280;9226;47.858;9.594;2024-02-15T07:24:01;95634.16;;;9.71;60.72
18201;BME280;9226;47.858;9.594;2024-02-15T07:26:26;95627.03;;;10.54;58.95
18201;BME280;9226;47.858;9.594;2024-02-15T07:28:53;95622.16;;;11.27;56.36
18201;BME280;9226;47.858;9.594;2024-02-15T07:31:22;95625.19;;;12.19;55.18
18201;BME280;9226;47.858;9.594;2024-02-15T07:33:50;95623.69;;;13.29;53.47
18201;BME280;9226;47.858;9.594;2024-02-15T07:36:20;95615.78;;;14.54;49.94
18201;BME280;9226;47.858;9.594;2024-02-15T07:38:47;95615.50;;;15.96;47.52
18201;BME280;9226;47.858;9.594;2024-02-15T07:41:13;95618.25;;;16.75;45.85
18201;BME280;9226;47.858;9.594;2024-02-15T07:43:39;95615.44;;;17.62;44.58
18201;BME280;9226;47.858;9.594;2024-02-15T07:46:06;95619.88;;;18.04;42.01
18201;BME280;9226;47.858;9.594;2024-02-15T07:48:31;95618.00;;;19.34;40.34
18201;BME280;9226;47.858;9.594;2024-02-15T07:50:57;95616.41;;;20.11;37.65
18201;BME280;9226;47.858;9.594;2024-02-15T07:53:24;95611.72;;;20.28;37.89
18201;BME280;9226;47.858;9.594;2024-02-15T07:55:49;95611.22;;;21.15;37.90
18201;BME280;9226;47.858;9.594;2024-02-15T07:58:15;95608.25;;;22.13;36.13
18201;BME280;9226;47.858;9.594;2024-02-15T08:00:44;95591.03;;;22.64;33.85
18201;BME280;9226;47.858;9.594;2024-02-15T08:03:09;95583.53;;;23.23;33.16
18201;BME280;9226;47.858;9.594;2024-02-15T08:05:35;95599.09;;;23.97;31.98
18201;BME280;9226;47.858;9.594;2024-02-15T08:08:01;95596.66;;;24.76;31.15
18201;BME280;9226;47.858;9.594;2024-02-15T08:10:29;95594.13;;;25.01;29.62
18201;BME280;9226;47.858;9.594;2024-02-15T08:12:54;95600.19;;;25.03;29.38
18201;BME280;9226;47.858;9.594;2024-02-15T08:15:22;95587.97;;;25.98;29.58
18201;BME280;9226;47.858;9.594;2024-02-15T08:17:49;95587.31;;;26.92;29.20
18201;BME280;9226;47.858;9.594;2024-02-15T08:20:15;95584.34;;;27.74;28.33
18201;BME280;9226;47.858;9.594;2024-02-15T08:22:42;95583.53;;;28.34;27.28
18201;BME280;9226;47.858;9.594;2024-02-15T08:25:10;95572.72;;;28.58;27.15
18201;BME280;9226;47.858;9.594;2024-02-15T08:27:40;95567.72;;;28.66;25.82
18201;BME280;9226;47.858;9.594;2024-02-15T08:30:13;95566.19;;;28.28;26.04
18201;BME280;9226;47.858;9.594;2024-02-15T08:32:42;95565.53;;;28.03;25.71
18201;BME280;9226;47.858;9.594;2024-02-15T08:35:09;95557.63;;;28.67;25.36
18201;BME280;9226;47.858;9.594;2024-02-15T08:37:36;95557.72;;;28.48;25.33
18201;BME280;9226;47.858;9.594;2024-02-15T08:40:04;95555.97;;;27.07;25.18
18201;BME280;9226;47.858;9.594;2024-02-15T08:42:30;95549.53;;;27.20;24.66
18201;BME280;9226;47.858;9.594;2024-02-15T08:44:56;95544.84;;;27.65;26.02
18201;BME280;9226;47.858;9.594;2024-02-15T08:47:22;95552.59;;;28.52;24.16
18201;BME280;9226;47.858;9.594;2024-02-15T08:49:47;95537.22;;;28.69;23.73
18201;BME280;9226;47.858;9.594;2024-02-15T08:52:12;95532.16;;;28.43;23.04
18201;BME280;9226;47.858;9.594;2024-02-15T08:54:38;95538.03;;;28.70;22.46
18201;BME280;9226;47.858;9.594;2024-02-15T08:57:06;95537.94;;;29.00;23.46
18201;BME280;9226;47.858;9.594;2024-02-15T08:59:32;95536.28;;;28.76;21.76
18201;BME280;9226;47.858;9.594;2024-02-15T09:01:58;95525.34;;;28.76;23.22
18201;BME280;9226;47.858;9.594;2024-02-15T09:04:25;95522.25;;;28.60;22.71
18201;BME280;9226;47.858;9.594;2024-02-15T09:06:51;95522.34;;;28.42;22.08
18201;BME280;9226;47.858;9.594;2024-02-15T09:09:17;95519.75;;;28.59;21.85
18201;BME280;9226;47.858;9.594;2024-02-15T09:11:42;95516.09;;;29.00;21.82
18201;BME280;9226;47.858;9.594;2024-02-15T09:14:08;95519.81;;;29.47;22.19
18201;BME280;9226;47.858;9.594;2024-02-15T09:16:36;95519.25;;;29.73;21.71
18201;BME280;9226;47.858;9.594;2024-02-15T09:19:01;95509.16;;;29.33;20.53
18201;BME280;9226;47.858;9.594;2024-02-15T09:21:27;95507.63;;;29.66;21.44
18201;BME280;9226;47.858;9.594;2024-02-15T09:23:56;95502.63;;;30.04;21.17
18201;BME280;9226;47.858;9.594;2024-02-15T09:26:21;95497.84;;;29.82;20.12
18201;BME280;9226;47.858;9.594;2024-02-15T09:28:47;95497.84;;;30.11;20.85
18201;BME280;9226;47.858;9.594;2024-02-15T09:31:12;95497.09;;;29.87;20.78
18201;BME280;9226;47.858;9.594;2024-02-15T09:33:39;95495.50;;;30.20;20.19
18201;BME280;9226;47.858;9.594;2024-02-15T09:36:04;95495.63;;;29.96;20.14
18201;BME280;9226;47.858;9.594;2024-02-15T09:38:30;95496.19;;;29.69;21.17
18201;BME280;9226;47.858;9.594;2024-02-15T09:40:55;95493.38;;;29.23;21.34
18201;BME280;9226;47.858;9.594;2024-02-15T09:43:20;95498.94;;;29.17;21.31
18201;BME280;9226;47.858;9.594;2024-02-15T09:45:47;95496.50;;;29.56;21.15
18201;BME280;9226;47.858;9.594;2024-02-15T09:48:15;95493.06;;;29.49;21.75
18201;BME280;9226;47.858;9.594;2024-02-15T09:50:44;95489.09;;;28.33;21.32
18201;BME280;9226;47.858;9.594;2024-02-15T09:53:12;95489.50;;;28.60;21.59
18201;BME280;9226;47.858;9.594;2024-02-15T09:55:39;95481.53;;;28.94;21.03
18201;BME280;9226;47.858;9.594;2024-02-15T09:58:07;95483.41;;;27.92;21.45
18201;BME280;9226;47.858;9.594;2024-02-15T10:00:33;95481.94;;;27.48;22.68
18201;BME280;9226;47.858;9.594;2024-02-15T10:03:00;95483.50;;;27.74;22.81
18201;BME280;9226;47.858;9.594;2024-02-15T10:05:27;95484.94;;;28.30;22.38
18201;BME280;9226;47.858;9.594;2024-02-15T10:07:53;95475.69;;;28.91;21.85
18201;BME280;9226;47.858;9.594;2024-02-15T10:10:20;95470.47;;;29.01;21.58
18201;BME280;9226;47.858;9.594;2024-02-15T10:12:49;95470.91;;;29.10;21.73
18201;BME280;9226;47.858;9.594;2024-02-15T10:17:57;95467.59;;;29.08;22.20
18201;BME280;9226;47.858;9.594;2024-02-15T10:20:24;95463.59;;;28.98;21.98
18201;BME280;9226;47.858;9.594;2024-02-15T10:22:53;95458.59;;;28.95;21.60
18201;BME280;9226;47.858;9.594;2024-02-15T10:25:34;95454.94;;;28.42;21.71
18201;BME280;9226;47.858;9.594;2024-02-15T10:28:03;95455.53;;;28.56;21.29
18201;BME280;9226;47.858;9.594;2024-02-15T10:30:33;95456.75;;;28.60;22.23
18201;BME280;9226;47.858;9.594;2024-02-15T10:32:58;95444.88;;;28.78;21.88
18201;BME280;9226;47.858;9.594;2024-02-15T10:35:24;95451.66;;;29.28;21.15
18201;BME280;9226;47.858;9.594;2024-02-15T10:37:50;95442.81;;;29.21;21.20
18201;BME280;9226;47.858;9.594;2024-02-15T10:40:19;95437.75;;;28.65;20.54
18201;BME280;9226;47.858;9.594;2024-02-15T10:42:48;95437.59;;;28.13;21.50
18201;BME280;9226;47.858;9.594;2024-02-15T10:45:15;95434.00;;;27.58;21.29
18201;BME280;9226;47.858;9.594;2024-02-15T10:47:44;95424.81;;;27.83;21.68
18201;BME280;9226;47.858;9.594;2024-02-15T10:50:09;95428.31;;;28.02;22.13
18201;BME280;9226;47.858;9.594;2024-02-15T10:52:37;95425.06;;;28.36;21.80
18201;BME280;9226;47.858;9.594;2024-02-15T10:55:09;95419.84;;;28.58;21.32
18201;BME280;9226;47.858;9.594;2024-02-15T10:57:40;95410.53;;;28.82;20.91
18201;BME280;9226;47.858;9.594;2024-02-15T11:00:11;95406.09;;;27.75;20.43
18201;BME280;9226;47.858;9.594;2024-02-15T11:02:54;95401.91;;;28.26;20.56
18201;BME280;9226;47.858;9.594;2024-02-15T11:05:29;95397.09;;;27.86;20.60
18201;BME280;9226;47.858;9.594;2024-02-15T11:08:04;95387.16;;;27.80;20.47
18201;BME280;9226;47.858;9.594;2024-02-15T11:10:31;95393.78;;;27.84;20.91
18201;BME280;9226;47.858;9.594;2024-02-15T11:12:57;95385.13;;;27.87;20.23
18201;BME280;9226;47.858;9.594;2024-02-15T11:16:02;95379.75;;;27.69;20.27
18201;BME280;9226;47.858;9.594;2024-02-15T11:18:47;95392.19;;;27.04;20.90
18201;BME280;9226;47.858;9.594;2024-02-15T11:21:55;95379.94;;;26.58;20.75
18201;BME280;9226;47.858;9.594;2024-02-15T11:27:00;95372.72;;;25.51;22.05
18201;BME280;9226;47.858;9.594;2024-02-15T11:29:48;95376.66;;;24.84;22.84
18201;BME280;9226;47.858;9.594;2024-02-15T11:32:35;95367.22;;;24.28;22.92
18201;BME280;9226;47.858;9.594;2024-02-15T11:35:04;95366.00;;;23.57;23.55
18201;BME280;9226;47.858;9.594;2024-02-15T11:40:26;95358.38;;;22.86;25.21
18201;BME280;9226;47.858;9.594;2024-02-15T11:42:59;95350.56;;;22.63;25.14
18201;BME280;9226;47.858;9.594;2024-02-15T11:45:28;95357.69;;;22.29;25.82
18201;BME280;9226;47.858;9.594;2024-02-15T11:47:58;95350.75;;;22.13;26.20
18201;BME280;9226;47.858;9.594;2024-02-15T11:50:27;95349.97;;;21.91;26.47
18201;BME280;9226;47.858;9.594;2024-02-15T11:52:52;95341.34;;;22.09;26.62
18201;BME280;9226;47.858;9.594;2024-02-15T11:55:30;95340.59;;;21.86;27.13
18201;BME280;9226;47.858;9.594;2024-02-15T11:58:00;95333.78;;;21.41;27.39
18201;BME280;9226;47.858;9.594;2024-02-15T12:00:30;95331.53;;;21.44;27.36
18201;BME280;9226;47.858;9.594;2024-02-15T12:03:15;95328.22;;;20.63;28.06
18201;BME280;9226;47.858;9.594;2024-02-15T12:06:19;95327.88;;;20.87;28.27
18201;BME280;9226;47.858;9.594;2024-02-15T12:09:03;95325.84;;;21.11;28.34
18201;BME280;9226;47.858;9.594;2024-02-15T12:11:47;95329.25;;;21.20;28.35
18201;BME280;9226;47.858;9.594;2024-02-15T12:14:40;95331.75;;;21.43;28.20
18201;BME280;9226;47.858;9.594;2024-02-15T12:17:24;95333.16;;;21.60;28.16
18201;BME280;9226;47.858;9.594;2024-02-15T12:20:08;95316.09;;;21.10;28.34
18201;BME280;9226;47.858;9.594;2024-02-15T12:22:47;95312.28;;;21.04;28.73
18201;BME280;9226;47.858;9.594;2024-02-15T12:25:14;95313.59;;;21.08;28.69
18201;BME280;9226;47.858;9.594;2024-02-15T12:27:44;95311.50;;;20.89;28.72
18201;BME280;9226;47.858;9.594;2024-02-15T12:30:16;95315.25;;;20.88;28.98
18201;BME280;9226;47.858;9.594;2024-02-15T12:32:52;95312.03;;;20.77;28.93
18201;BME280;9226;47.858;9.594;2024-02-15T12:35:22;95302.47;;;20.38;29.72
18201;BME280;9226;47.858;9.594;2024-02-15T12:38:01;95306.22;;;20.59;29.65
18201;BME280;9226;47.858;9.594;2024-02-15T12:40:31;95297.38;;;20.65;29.60
18201;BME280;9226;47.858;9.594;2024-02-15T12:42:57;95295.34;;;20.67;29.57
18201;BME280;9226;47.858;9.594;2024-02-15T12:45:25;95291.50;;;20.61;30.22
18201;BME280;9226;47.858;9.594;2024-02-15T12:47:54;95284.19;;;20.55;30.27
18201;BME280;9226;47.858;9.594;2024-02-15T12:50:20;95288.09;;;20.53;30.15
18201;BME280;9226;47.858;9.594;2024-02-15T12:52:47;95285.00;;;20.34;30.74
18201;BME280;9226;47.858;9.594;2024-02-15T12:55:16;95288.34;;;20.21;30.90
18201;BME280;9226;47.858;9.594;2024-02-15T12:57:48;95283.69;;;19.56;31.45
18201;BME280;9226;47.858;9.594;2024-02-15T13:00:18;95276.13;;;19.89;31.15
18201;BME280;9226;47.858;9.594;2024-02-15T13:02:44;95280.97;;;19.79;31.64
18201;BME280;9226;47.858;9.594;2024-02-15T13:05:10;95281.69;;;19.73;31.50
18201;BME280;9226;47.858;9.594;2024-02-15T13:07:37;95283.97;;;19.61;32.03
18201;BME280;9226;47.858;9.594;2024-02-15T13:10:03;95272.66;;;19.50;32.64
18201;BME280;9226;47.858;9.594;2024-02-15T13:12:32;95271.47;;;19.53;32.09
18201;BME280;9226;47.858;9.594;2024-02-15T13:15:00;95272.75;;;19.57;32.07
18201;BME280;9226;47.858;9.594;2024-02-15T13:17:25;95268.31;;;19.64;32.10
18201;BME280;9226;47.858;9.594;2024-02-15T13:19:52;95269.06;;;19.58;32.12
18201;BME280;9226;47.858;9.594;2024-02-15T13:22:17;95266.97;;;19.30;31.76
18201;BME280;9226;47.858;9.594;2024-02-15T13:24:44;95262.28;;;19.47;31.86
18201;BME280;9226;47.858;9.594;2024-02-15T13:27:09;95265.50;;;19.43;32.11
18201;BME280;9226;47.858;9.594;2024-02-15T13:29:38;95252.53;;;19.46;32.33